createdAt,value
2023-02-14T00:00:10.000Z,1.7000000476837158
2023-02-14T00:00:25.000Z,1.7000000476837158
2023-02-14T00:00:40.000Z,1.7000000476837158
2023-02-14T00:00:55.000Z,1.7000000476837158
2023-02-14T00:01:10.000Z,1.7000000476837158
2023-02-14T00:01:25.000Z,1.600000023841858
2023-02-14T00:01:39.000Z,1.600000023841858
2023-02-14T00:01:54.000Z,1.600000023841858
2023-02-14T00:02:09.000Z,1.600000023841858
2023-02-14T00:02:24.000Z,1.600000023841858
2023-02-14T00:02:39.000Z,1.5
2023-02-14T00:02:54.000Z,1.5
2023-02-14T00:03:09.000Z,1.5
2023-02-14T00:03:24.000Z,1.5
2023-02-14T00:03:39.000Z,1.5
2023-02-14T00:03:54.000Z,1.5
2023-02-14T00:04:09.000Z,1.5
2023-02-14T00:04:24.000Z,1.5
2023-02-14T00:04:39.000Z,1.5
2023-02-14T00:04:54.000Z,1.5
2023-02-14T00:05:09.000Z,1.5
2023-02-14T00:05:24.000Z,1.5
2023-02-14T00:05:39.000Z,1.399999976158142
2023-02-14T00:05:55.000Z,1.5
2023-02-14T00:06:10.000Z,1.5
2023-02-14T00:06:25.000Z,1.5
2023-02-14T00:06:40.000Z,1.399999976158142
2023-02-14T00:06:55.000Z,1.399999976158142
2023-02-14T00:07:10.000Z,1.399999976158142
2023-02-14T00:07:25.000Z,1.399999976158142
2023-02-14T00:07:40.000Z,1.399999976158142
2023-02-14T00:07:55.000Z,1.399999976158142
2023-02-14T00:08:10.000Z,1.399999976158142
2023-02-14T00:08:25.000Z,1.399999976158142
2023-02-14T00:08:40.000Z,1.399999976158142
2023-02-14T00:08:55.000Z,1.399999976158142
2023-02-14T00:09:10.000Z,1.399999976158142
2023-02-14T00:09:24.000Z,1.399999976158142
2023-02-14T00:09:39.000Z,1.399999976158142
2023-02-14T00:09:54.000Z,1.399999976158142
2023-02-14T00:10:09.000Z,1.399999976158142
2023-02-14T00:10:24.000Z,1.399999976158142
2023-02-14T00:10:39.000Z,1.399999976158142
2023-02-14T00:10:54.000Z,1.399999976158142
2023-02-14T00:11:09.000Z,1.399999976158142
2023-02-14T00:11:24.000Z,1.2999999523162842
2023-02-14T00:11:39.000Z,1.2999999523162842
2023-02-14T00:11:54.000Z,1.2999999523162842
2023-02-14T00:12:09.000Z,1.2999999523162842
2023-02-14T00:12:24.000Z,1.2999999523162842
2023-02-14T00:12:39.000Z,1.2999999523162842
2023-02-14T00:12:54.000Z,1.2999999523162842
2023-02-14T00:13:09.000Z,1.2999999523162842
2023-02-14T00:13:24.000Z,1.2999999523162842
2023-02-14T00:13:40.000Z,1.2999999523162842
2023-02-14T00:13:55.000Z,1.2999999523162842
2023-02-14T00:14:10.000Z,1.2999999523162842
2023-02-14T00:14:25.000Z,1.2999999523162842
2023-02-14T00:14:40.000Z,1.2999999523162842
2023-02-14T00:14:55.000Z,1.2999999523162842
2023-02-14T00:15:10.000Z,1.2999999523162842
2023-02-14T00:15:25.000Z,1.2999999523162842
2023-02-14T00:15:40.000Z,1.2999999523162842
2023-02-14T00:15:55.000Z,1.399999976158142
2023-02-14T00:16:10.000Z,1.2999999523162842
2023-02-14T00:16:25.000Z,1.2999999523162842
2023-02-14T00:16:40.000Z,1.399999976158142
2023-02-14T00:16:55.000Z,1.399999976158142
2023-02-14T00:17:09.000Z,1.399999976158142
2023-02-14T00:17:24.000Z,1.399999976158142
2023-02-14T00:17:39.000Z,1.399999976158142
2023-02-14T00:17:54.000Z,1.399999976158142
2023-02-14T00:18:09.000Z,1.399999976158142
2023-02-14T00:18:24.000Z,1.399999976158142
2023-02-14T00:18:39.000Z,1.2999999523162842
2023-02-14T00:18:54.000Z,1.399999976158142
2023-02-14T00:19:09.000Z,1.399999976158142
2023-02-14T00:19:24.000Z,1.399999976158142
2023-02-14T00:19:39.000Z,1.2999999523162842
2023-02-14T00:19:54.000Z,1.2999999523162842
2023-02-14T00:20:09.000Z,1.2999999523162842
2023-02-14T00:20:24.000Z,1.399999976158142
2023-02-14T00:20:39.000Z,1.399999976158142
2023-02-14T00:20:54.000Z,1.399999976158142
2023-02-14T00:21:09.000Z,1.399999976158142
2023-02-14T00:21:25.000Z,1.399999976158142
2023-02-14T00:21:40.000Z,1.399999976158142
2023-02-14T00:21:55.000Z,1.399999976158142
2023-02-14T00:22:10.000Z,1.399999976158142
2023-02-14T00:22:25.000Z,1.399999976158142
2023-02-14T00:22:40.000Z,1.399999976158142
2023-02-14T00:22:55.000Z,1.399999976158142
2023-02-14T00:23:10.000Z,1.399999976158142
2023-02-14T00:23:25.000Z,1.399999976158142
2023-02-14T00:23:40.000Z,1.399999976158142
2023-02-14T00:23:55.000Z,1.399999976158142
2023-02-14T00:24:10.000Z,1.399999976158142
2023-02-14T00:24:25.000Z,1.399999976158142
2023-02-14T00:24:40.000Z,1.399999976158142
2023-02-14T00:24:54.000Z,1.5
2023-02-14T00:25:09.000Z,1.5
2023-02-14T00:25:24.000Z,1.5
2023-02-14T00:25:39.000Z,1.5
2023-02-14T00:25:54.000Z,1.5
2023-02-14T00:26:09.000Z,1.5
2023-02-14T00:26:24.000Z,1.5
2023-02-14T00:26:39.000Z,1.5
2023-02-14T00:26:54.000Z,1.5
2023-02-14T00:27:09.000Z,1.5
2023-02-14T00:27:24.000Z,1.5
2023-02-14T00:27:39.000Z,1.5
2023-02-14T00:27:54.000Z,1.5
2023-02-14T00:28:09.000Z,1.5
2023-02-14T00:28:24.000Z,1.5
2023-02-14T00:28:39.000Z,1.5
2023-02-14T00:28:54.000Z,1.5
2023-02-14T00:29:10.000Z,1.5
2023-02-14T00:29:25.000Z,1.5
2023-02-14T00:29:40.000Z,1.5
2023-02-14T00:29:55.000Z,1.5
2023-02-14T00:30:10.000Z,1.5
2023-02-14T00:30:25.000Z,1.5
2023-02-14T00:30:40.000Z,1.399999976158142
2023-02-14T00:30:55.000Z,1.399999976158142
2023-02-14T00:31:10.000Z,1.399999976158142
2023-02-14T00:31:25.000Z,1.399999976158142
2023-02-14T00:31:40.000Z,1.399999976158142
2023-02-14T00:31:55.000Z,1.5
2023-02-14T00:32:10.000Z,1.5
2023-02-14T00:32:24.000Z,1.399999976158142
2023-02-14T00:32:39.000Z,1.399999976158142
2023-02-14T00:32:54.000Z,1.399999976158142
2023-02-14T00:33:09.000Z,1.399999976158142
2023-02-14T00:33:24.000Z,1.399999976158142
2023-02-14T00:33:39.000Z,1.399999976158142
2023-02-14T00:33:54.000Z,1.399999976158142
2023-02-14T00:34:09.000Z,1.399999976158142
2023-02-14T00:34:24.000Z,1.399999976158142
2023-02-14T00:34:39.000Z,1.399999976158142
2023-02-14T00:34:54.000Z,1.399999976158142
2023-02-14T00:35:09.000Z,1.399999976158142
2023-02-14T00:35:24.000Z,1.399999976158142
2023-02-14T00:35:39.000Z,1.399999976158142
2023-02-14T00:35:54.000Z,1.399999976158142
2023-02-14T00:36:09.000Z,1.399999976158142
2023-02-14T00:36:24.000Z,1.399999976158142
2023-02-14T00:36:40.000Z,1.399999976158142
2023-02-14T00:36:55.000Z,1.399999976158142
2023-02-14T00:37:10.000Z,1.399999976158142
2023-02-14T00:37:25.000Z,1.399999976158142
2023-02-14T00:37:40.000Z,1.399999976158142
2023-02-14T00:37:55.000Z,1.399999976158142
2023-02-14T00:38:10.000Z,1.399999976158142
2023-02-14T00:38:25.000Z,1.399999976158142
2023-02-14T00:38:40.000Z,1.399999976158142
2023-02-14T00:38:55.000Z,1.399999976158142
2023-02-14T00:39:10.000Z,1.399999976158142
2023-02-14T00:39:25.000Z,1.399999976158142
2023-02-14T00:39:40.000Z,1.399999976158142
2023-02-14T00:39:54.000Z,1.399999976158142
2023-02-14T00:40:09.000Z,1.399999976158142
2023-02-14T00:40:24.000Z,1.399999976158142
2023-02-14T00:40:39.000Z,1.399999976158142
2023-02-14T00:40:54.000Z,1.399999976158142
2023-02-14T00:41:09.000Z,1.399999976158142
2023-02-14T00:41:24.000Z,1.399999976158142
2023-02-14T00:41:39.000Z,1.399999976158142
2023-02-14T00:41:54.000Z,1.399999976158142
2023-02-14T00:42:09.000Z,1.2999999523162842
2023-02-14T00:42:24.000Z,1.2000000476837158
2023-02-14T00:42:39.000Z,1.100000023841858
2023-02-14T00:42:54.000Z,1.100000023841858
2023-02-14T00:43:09.000Z,1.100000023841858
2023-02-14T00:43:24.000Z,1.0
2023-02-14T00:43:39.000Z,1.0
2023-02-14T00:43:54.000Z,1.0
2023-02-14T00:44:10.000Z,1.0
2023-02-14T00:44:25.000Z,1.0
2023-02-14T00:44:40.000Z,1.0
2023-02-14T00:44:55.000Z,1.0
2023-02-14T00:45:10.000Z,1.0
2023-02-14T00:45:25.000Z,1.0
2023-02-14T00:45:40.000Z,0.8999999761581421
2023-02-14T00:45:55.000Z,0.8999999761581421
2023-02-14T00:46:10.000Z,0.8999999761581421
2023-02-14T00:46:25.000Z,0.8999999761581421
2023-02-14T00:46:40.000Z,0.8999999761581421
2023-02-14T00:46:55.000Z,0.8999999761581421
2023-02-14T00:47:10.000Z,0.8999999761581421
2023-02-14T00:47:25.000Z,0.8999999761581421
2023-02-14T00:47:39.000Z,0.8999999761581421
2023-02-14T00:47:54.000Z,0.8999999761581421
2023-02-14T00:48:09.000Z,0.8999999761581421
2023-02-14T00:48:24.000Z,0.8999999761581421
2023-02-14T00:48:39.000Z,0.8999999761581421
2023-02-14T00:48:54.000Z,0.8999999761581421
2023-02-14T00:49:09.000Z,0.8999999761581421
2023-02-14T00:49:24.000Z,0.800000011920929
2023-02-14T00:49:39.000Z,0.800000011920929
2023-02-14T00:49:54.000Z,0.800000011920929
2023-02-14T00:50:09.000Z,0.800000011920929
2023-02-14T00:50:24.000Z,0.800000011920929
2023-02-14T00:50:39.000Z,0.699999988079071
2023-02-14T00:50:54.000Z,0.699999988079071
2023-02-14T00:51:09.000Z,0.699999988079071
2023-02-14T00:51:24.000Z,0.6000000238418579
2023-02-14T00:51:39.000Z,0.6000000238418579
2023-02-14T00:51:55.000Z,0.6000000238418579
2023-02-14T00:52:10.000Z,0.6000000238418579
2023-02-14T00:52:25.000Z,0.6000000238418579
2023-02-14T00:52:40.000Z,0.6000000238418579
2023-02-14T00:52:55.000Z,0.699999988079071
2023-02-14T00:53:10.000Z,0.699999988079071
2023-02-14T00:53:25.000Z,0.699999988079071
2023-02-14T00:53:40.000Z,0.699999988079071
2023-02-14T00:53:55.000Z,0.699999988079071
2023-02-14T00:54:10.000Z,0.699999988079071
2023-02-14T00:54:25.000Z,0.699999988079071
2023-02-14T00:54:40.000Z,0.699999988079071
2023-02-14T00:54:55.000Z,0.699999988079071
2023-02-14T00:55:10.000Z,0.699999988079071
2023-02-14T00:55:24.000Z,0.699999988079071
2023-02-14T00:55:39.000Z,0.699999988079071
2023-02-14T00:55:54.000Z,0.699999988079071
2023-02-14T00:56:09.000Z,0.699999988079071
2023-02-14T00:56:24.000Z,0.800000011920929
2023-02-14T00:56:39.000Z,0.800000011920929
2023-02-14T00:56:54.000Z,0.800000011920929
2023-02-14T00:57:09.000Z,0.800000011920929
2023-02-14T00:57:24.000Z,0.800000011920929
2023-02-14T00:57:39.000Z,0.800000011920929
2023-02-14T00:57:54.000Z,0.800000011920929
2023-02-14T00:58:09.000Z,0.800000011920929
2023-02-14T00:58:24.000Z,0.800000011920929
2023-02-14T00:58:39.000Z,0.8999999761581421
2023-02-14T00:58:54.000Z,0.8999999761581421
2023-02-14T00:59:09.000Z,0.8999999761581421
2023-02-14T00:59:24.000Z,0.8999999761581421
2023-02-14T00:59:40.000Z,0.8999999761581421
2023-02-14T00:59:55.000Z,0.8999999761581421
2023-02-14T01:00:10.000Z,0.8999999761581421
2023-02-14T01:00:25.000Z,0.8999999761581421
2023-02-14T01:00:40.000Z,1.0
2023-02-14T01:00:55.000Z,1.0
2023-02-14T01:01:10.000Z,1.0
2023-02-14T01:01:25.000Z,1.0
2023-02-14T01:01:40.000Z,1.0
2023-02-14T01:01:55.000Z,1.0
2023-02-14T01:02:10.000Z,1.100000023841858
2023-02-14T01:02:25.000Z,1.100000023841858
2023-02-14T01:02:40.000Z,1.100000023841858
2023-02-14T01:02:55.000Z,1.2000000476837158
2023-02-14T01:03:09.000Z,1.2000000476837158
2023-02-14T01:03:24.000Z,1.2000000476837158
2023-02-14T01:03:39.000Z,1.2000000476837158
2023-02-14T01:03:54.000Z,1.2999999523162842
2023-02-14T01:04:09.000Z,1.2999999523162842
2023-02-14T01:04:24.000Z,1.2999999523162842
2023-02-14T01:04:39.000Z,1.399999976158142
2023-02-14T01:04:54.000Z,1.399999976158142
2023-02-14T01:05:09.000Z,1.399999976158142
2023-02-14T01:05:24.000Z,1.399999976158142
2023-02-14T01:05:39.000Z,1.399999976158142
2023-02-14T01:05:54.000Z,1.399999976158142
2023-02-14T01:06:09.000Z,1.399999976158142
2023-02-14T01:06:24.000Z,1.399999976158142
2023-02-14T01:06:39.000Z,1.399999976158142
2023-02-14T01:06:54.000Z,1.399999976158142
2023-02-14T01:07:09.000Z,1.399999976158142
2023-02-14T01:07:25.000Z,1.399999976158142
2023-02-14T01:07:40.000Z,1.399999976158142
2023-02-14T01:07:55.000Z,1.399999976158142
2023-02-14T01:08:10.000Z,1.399999976158142
2023-02-14T01:08:25.000Z,1.399999976158142
2023-02-14T01:08:40.000Z,1.399999976158142
2023-02-14T01:08:55.000Z,1.399999976158142
2023-02-14T01:09:10.000Z,1.399999976158142
2023-02-14T01:09:25.000Z,1.399999976158142
2023-02-14T01:09:40.000Z,1.399999976158142
2023-02-14T01:09:55.000Z,1.399999976158142
2023-02-14T01:10:10.000Z,1.5
2023-02-14T01:10:25.000Z,1.5
2023-02-14T01:10:40.000Z,1.399999976158142
2023-02-14T01:10:54.000Z,1.5
2023-02-14T01:11:09.000Z,1.5
2023-02-14T01:11:24.000Z,1.5
2023-02-14T01:11:39.000Z,1.5
2023-02-14T01:11:54.000Z,1.5
2023-02-14T01:12:09.000Z,1.5
2023-02-14T01:12:24.000Z,1.5
2023-02-14T01:12:39.000Z,1.5
2023-02-14T01:12:54.000Z,1.5
2023-02-14T01:13:09.000Z,1.5
2023-02-14T01:13:24.000Z,1.5
2023-02-14T01:13:39.000Z,1.600000023841858
2023-02-14T01:13:54.000Z,1.5
2023-02-14T01:14:09.000Z,1.600000023841858
2023-02-14T01:14:24.000Z,1.600000023841858
2023-02-14T01:14:39.000Z,1.600000023841858
2023-02-14T01:14:54.000Z,1.600000023841858
2023-02-14T01:15:10.000Z,1.600000023841858
2023-02-14T01:15:25.000Z,1.7000000476837158
2023-02-14T01:15:40.000Z,1.7000000476837158
2023-02-14T01:15:55.000Z,1.7000000476837158
2023-02-14T01:16:10.000Z,1.7000000476837158
2023-02-14T01:16:25.000Z,1.7000000476837158
2023-02-14T01:16:40.000Z,1.7000000476837158
2023-02-14T01:16:55.000Z,1.7000000476837158
2023-02-14T01:17:10.000Z,1.7000000476837158
2023-02-14T01:17:25.000Z,1.7000000476837158
2023-02-14T01:17:40.000Z,1.7999999523162842
2023-02-14T01:17:55.000Z,1.7999999523162842
2023-02-14T01:18:10.000Z,1.7999999523162842
2023-02-14T01:18:24.000Z,1.7999999523162842
2023-02-14T01:18:39.000Z,1.7999999523162842
2023-02-14T01:18:54.000Z,1.7999999523162842
2023-02-14T01:19:09.000Z,1.7999999523162842
2023-02-14T01:19:24.000Z,1.7999999523162842
2023-02-14T01:19:39.000Z,1.7999999523162842
2023-02-14T01:19:54.000Z,1.7999999523162842
2023-02-14T01:20:09.000Z,1.7999999523162842
2023-02-14T01:20:24.000Z,1.899999976158142
2023-02-14T01:20:39.000Z,1.899999976158142
2023-02-14T01:20:54.000Z,1.899999976158142
2023-02-14T01:21:09.000Z,1.899999976158142
2023-02-14T01:21:24.000Z,1.899999976158142
2023-02-14T01:21:39.000Z,1.899999976158142
2023-02-14T01:21:54.000Z,1.899999976158142
2023-02-14T01:22:09.000Z,1.899999976158142
2023-02-14T01:22:24.000Z,1.899999976158142
2023-02-14T01:22:40.000Z,1.899999976158142
2023-02-14T01:22:55.000Z,1.899999976158142
2023-02-14T01:23:10.000Z,1.899999976158142
2023-02-14T01:23:25.000Z,1.899999976158142
2023-02-14T01:23:40.000Z,1.899999976158142
2023-02-14T01:23:55.000Z,1.7999999523162842
2023-02-14T01:24:10.000Z,1.7999999523162842
2023-02-14T01:24:25.000Z,1.7999999523162842
2023-02-14T01:24:40.000Z,1.7999999523162842
2023-02-14T01:24:55.000Z,1.7000000476837158
2023-02-14T01:25:10.000Z,1.7000000476837158
2023-02-14T01:25:25.000Z,1.7000000476837158
2023-02-14T01:25:40.000Z,1.600000023841858
2023-02-14T01:25:55.000Z,1.600000023841858
2023-02-14T01:26:09.000Z,1.600000023841858
2023-02-14T01:26:24.000Z,1.5
2023-02-14T01:26:39.000Z,1.5
2023-02-14T01:26:54.000Z,1.5
2023-02-14T01:27:09.000Z,1.5
2023-02-14T01:27:24.000Z,1.399999976158142
2023-02-14T01:27:39.000Z,1.399999976158142
2023-02-14T01:27:54.000Z,1.399999976158142
2023-02-14T01:28:09.000Z,1.399999976158142
2023-02-14T01:28:24.000Z,1.399999976158142
2023-02-14T01:28:39.000Z,1.399999976158142
2023-02-14T01:28:54.000Z,1.399999976158142
2023-02-14T01:29:09.000Z,1.399999976158142
2023-02-14T01:29:24.000Z,1.399999976158142
2023-02-14T01:29:39.000Z,1.2999999523162842
2023-02-14T01:29:54.000Z,1.2999999523162842
2023-02-14T01:30:10.000Z,1.2999999523162842
2023-02-14T01:30:25.000Z,1.2999999523162842
2023-02-14T01:30:40.000Z,1.2000000476837158
2023-02-14T01:30:55.000Z,1.2000000476837158
2023-02-14T01:31:10.000Z,1.2000000476837158
2023-02-14T01:31:25.000Z,1.2000000476837158
2023-02-14T01:31:40.000Z,1.2000000476837158
2023-02-14T01:31:55.000Z,1.100000023841858
2023-02-14T01:32:10.000Z,1.100000023841858
2023-02-14T01:32:25.000Z,1.100000023841858
2023-02-14T01:32:40.000Z,1.100000023841858
2023-02-14T01:32:55.000Z,1.100000023841858
2023-02-14T01:33:10.000Z,1.100000023841858
2023-02-14T01:33:24.000Z,1.100000023841858
2023-02-14T01:33:39.000Z,1.100000023841858
2023-02-14T01:33:54.000Z,1.0
2023-02-14T01:34:09.000Z,1.0
2023-02-14T01:34:24.000Z,1.0
2023-02-14T01:34:39.000Z,1.0
2023-02-14T01:34:54.000Z,1.0
2023-02-14T01:35:09.000Z,1.0
2023-02-14T01:35:24.000Z,1.0
2023-02-14T01:35:39.000Z,1.0
2023-02-14T01:35:54.000Z,1.0
2023-02-14T01:36:09.000Z,1.0
2023-02-14T01:36:24.000Z,1.0
2023-02-14T01:36:39.000Z,1.0
2023-02-14T01:36:54.000Z,1.0
2023-02-14T01:37:09.000Z,1.0
2023-02-14T01:37:24.000Z,1.0
2023-02-14T01:37:40.000Z,1.0
2023-02-14T01:37:55.000Z,1.0
2023-02-14T01:38:10.000Z,1.0
2023-02-14T01:38:25.000Z,1.0
2023-02-14T01:38:40.000Z,0.8999999761581421
2023-02-14T01:38:55.000Z,0.8999999761581421
2023-02-14T01:39:10.000Z,0.8999999761581421
2023-02-14T01:39:25.000Z,0.8999999761581421
2023-02-14T01:39:40.000Z,0.8999999761581421
2023-02-14T01:39:55.000Z,0.8999999761581421
2023-02-14T01:40:10.000Z,0.8999999761581421
2023-02-14T01:40:25.000Z,0.8999999761581421
2023-02-14T01:40:40.000Z,0.8999999761581421
2023-02-14T01:40:54.000Z,0.8999999761581421
2023-02-14T01:41:09.000Z,0.8999999761581421
2023-02-14T01:41:24.000Z,0.8999999761581421
2023-02-14T01:41:39.000Z,0.8999999761581421
2023-02-14T01:41:54.000Z,0.8999999761581421
2023-02-14T01:42:09.000Z,0.8999999761581421
2023-02-14T01:42:24.000Z,0.8999999761581421
2023-02-14T01:42:39.000Z,0.8999999761581421
2023-02-14T01:42:54.000Z,0.8999999761581421
2023-02-14T01:43:09.000Z,0.8999999761581421
2023-02-14T01:43:24.000Z,0.8999999761581421
2023-02-14T01:43:39.000Z,0.8999999761581421
2023-02-14T01:43:54.000Z,0.8999999761581421
2023-02-14T01:44:09.000Z,0.8999999761581421
2023-02-14T01:44:24.000Z,0.8999999761581421
2023-02-14T01:44:39.000Z,0.8999999761581421
2023-02-14T01:44:54.000Z,0.8999999761581421
2023-02-14T01:45:10.000Z,0.8999999761581421
2023-02-14T01:45:25.000Z,0.8999999761581421
2023-02-14T01:45:40.000Z,0.8999999761581421
2023-02-14T01:45:55.000Z,0.8999999761581421
2023-02-14T01:46:10.000Z,0.8999999761581421
2023-02-14T01:46:25.000Z,0.8999999761581421
2023-02-14T01:46:40.000Z,0.8999999761581421
2023-02-14T01:46:55.000Z,0.8999999761581421
2023-02-14T01:47:10.000Z,0.8999999761581421
2023-02-14T01:47:25.000Z,0.8999999761581421
2023-02-14T01:47:40.000Z,0.8999999761581421
2023-02-14T01:47:55.000Z,0.8999999761581421
2023-02-14T01:48:10.000Z,0.8999999761581421
2023-02-14T01:48:25.000Z,1.0
2023-02-14T01:48:39.000Z,1.0
2023-02-14T01:48:54.000Z,1.0
2023-02-14T01:49:09.000Z,1.0
2023-02-14T01:49:24.000Z,1.0
2023-02-14T01:49:39.000Z,1.0
2023-02-14T01:49:54.000Z,1.0
2023-02-14T01:50:09.000Z,1.0
2023-02-14T01:50:24.000Z,1.0
2023-02-14T01:50:39.000Z,1.0
2023-02-14T01:50:54.000Z,1.0
2023-02-14T01:51:09.000Z,1.0
2023-02-14T01:51:24.000Z,1.0
2023-02-14T01:51:39.000Z,1.0
2023-02-14T01:51:54.000Z,1.0
2023-02-14T01:52:09.000Z,1.0
2023-02-14T01:52:24.000Z,1.0
2023-02-14T01:52:40.000Z,1.0
2023-02-14T01:52:55.000Z,1.0
2023-02-14T01:53:10.000Z,1.0
2023-02-14T01:53:25.000Z,1.0
2023-02-14T01:53:40.000Z,1.0
2023-02-14T01:53:55.000Z,1.0
2023-02-14T01:54:10.000Z,1.0
2023-02-14T01:54:25.000Z,1.0
2023-02-14T01:54:40.000Z,1.0
2023-02-14T01:54:55.000Z,1.0
2023-02-14T01:55:10.000Z,1.0
2023-02-14T01:55:25.000Z,1.0
2023-02-14T01:55:40.000Z,1.0
2023-02-14T01:55:54.000Z,1.0
2023-02-14T01:56:09.000Z,1.0
2023-02-14T01:56:24.000Z,1.0
2023-02-14T01:56:39.000Z,1.0
2023-02-14T01:56:54.000Z,1.0
2023-02-14T01:57:09.000Z,1.0
2023-02-14T01:57:24.000Z,1.0
2023-02-14T01:57:39.000Z,1.0
2023-02-14T01:57:54.000Z,1.0
2023-02-14T01:58:09.000Z,1.0
2023-02-14T01:58:24.000Z,1.0
2023-02-14T01:58:39.000Z,1.0
2023-02-14T01:58:54.000Z,1.0
2023-02-14T01:59:09.000Z,1.0
2023-02-14T01:59:24.000Z,1.0
2023-02-14T01:59:39.000Z,1.0
2023-02-14T01:59:54.000Z,1.0
2023-02-14T02:00:10.000Z,1.100000023841858
2023-02-14T02:00:25.000Z,1.100000023841858
2023-02-14T02:00:40.000Z,1.100000023841858
2023-02-14T02:00:55.000Z,1.100000023841858
2023-02-14T02:01:10.000Z,1.100000023841858
2023-02-14T02:01:25.000Z,1.100000023841858
2023-02-14T02:01:40.000Z,1.100000023841858
2023-02-14T02:01:55.000Z,1.100000023841858
2023-02-14T02:02:10.000Z,1.100000023841858
2023-02-14T02:02:25.000Z,1.100000023841858
2023-02-14T02:02:40.000Z,1.2000000476837158
2023-02-14T02:02:55.000Z,1.100000023841858
2023-02-14T02:03:10.000Z,1.2000000476837158
2023-02-14T02:03:24.000Z,1.2000000476837158
2023-02-14T02:03:39.000Z,1.2000000476837158
2023-02-14T02:03:54.000Z,1.2000000476837158
2023-02-14T02:04:09.000Z,1.2000000476837158
2023-02-14T02:04:24.000Z,1.2000000476837158
2023-02-14T02:04:39.000Z,1.2000000476837158
2023-02-14T02:04:54.000Z,1.2000000476837158
2023-02-14T02:05:09.000Z,1.2000000476837158
2023-02-14T02:05:24.000Z,1.2000000476837158
2023-02-14T02:05:39.000Z,1.2999999523162842
2023-02-14T02:05:54.000Z,1.2999999523162842
2023-02-14T02:06:09.000Z,1.2999999523162842
2023-02-14T02:06:24.000Z,1.2999999523162842
2023-02-14T02:06:39.000Z,1.2999999523162842
2023-02-14T02:06:54.000Z,1.2999999523162842
2023-02-14T02:07:09.000Z,1.2999999523162842
2023-02-14T02:07:24.000Z,1.2999999523162842
2023-02-14T02:07:40.000Z,1.2999999523162842
2023-02-14T02:07:55.000Z,1.2999999523162842
2023-02-14T02:08:10.000Z,1.2999999523162842
2023-02-14T02:08:25.000Z,1.2999999523162842
2023-02-14T02:08:40.000Z,1.2999999523162842
2023-02-14T02:08:55.000Z,1.2999999523162842
2023-02-14T02:09:10.000Z,1.2999999523162842
2023-02-14T02:09:25.000Z,1.399999976158142
2023-02-14T02:09:40.000Z,1.399999976158142
2023-02-14T02:09:55.000Z,1.399999976158142
2023-02-14T02:10:10.000Z,1.399999976158142
2023-02-14T02:10:25.000Z,1.399999976158142
2023-02-14T02:10:40.000Z,1.399999976158142
2023-02-14T02:10:54.000Z,1.399999976158142
2023-02-14T02:11:09.000Z,1.399999976158142
2023-02-14T02:11:24.000Z,1.399999976158142
2023-02-14T02:11:39.000Z,1.399999976158142
2023-02-14T02:11:54.000Z,1.399999976158142
2023-02-14T02:12:09.000Z,1.399999976158142
2023-02-14T02:12:24.000Z,1.399999976158142
2023-02-14T02:12:39.000Z,1.399999976158142
2023-02-14T02:12:54.000Z,1.399999976158142
2023-02-14T02:13:09.000Z,1.5
2023-02-14T02:13:24.000Z,1.399999976158142
2023-02-14T02:13:39.000Z,1.5
2023-02-14T02:13:54.000Z,1.5
2023-02-14T02:14:09.000Z,1.5
2023-02-14T02:14:24.000Z,1.5
2023-02-14T02:14:39.000Z,1.5
2023-02-14T02:14:55.000Z,1.5
2023-02-14T02:15:10.000Z,1.5
2023-02-14T02:15:25.000Z,1.5
2023-02-14T02:15:40.000Z,1.5
2023-02-14T02:15:55.000Z,1.5
2023-02-14T02:16:10.000Z,1.5
2023-02-14T02:16:25.000Z,1.600000023841858
2023-02-14T02:16:40.000Z,1.600000023841858
2023-02-14T02:16:55.000Z,1.600000023841858
2023-02-14T02:17:10.000Z,1.600000023841858
2023-02-14T02:17:25.000Z,1.600000023841858
2023-02-14T02:17:40.000Z,1.600000023841858
2023-02-14T02:17:55.000Z,1.600000023841858
2023-02-14T02:18:09.000Z,1.600000023841858
2023-02-14T02:18:24.000Z,1.600000023841858
2023-02-14T02:18:39.000Z,1.600000023841858
2023-02-14T02:18:54.000Z,1.600000023841858
2023-02-14T02:19:09.000Z,1.600000023841858
2023-02-14T02:19:24.000Z,1.600000023841858
2023-02-14T02:19:39.000Z,1.600000023841858
2023-02-14T02:19:54.000Z,1.600000023841858
2023-02-14T02:20:09.000Z,1.600000023841858
2023-02-14T02:20:24.000Z,1.600000023841858
2023-02-14T02:20:39.000Z,1.600000023841858
2023-02-14T02:20:54.000Z,1.600000023841858
2023-02-14T02:21:09.000Z,1.600000023841858
2023-02-14T02:21:24.000Z,1.600000023841858
2023-02-14T02:21:39.000Z,1.600000023841858
2023-02-14T02:21:54.000Z,1.600000023841858
2023-02-14T02:22:09.000Z,1.600000023841858
2023-02-14T02:22:25.000Z,1.600000023841858
2023-02-14T02:22:40.000Z,1.600000023841858
2023-02-14T02:22:55.000Z,1.600000023841858
2023-02-14T02:23:10.000Z,1.600000023841858
2023-02-14T02:23:25.000Z,1.600000023841858
2023-02-14T02:23:40.000Z,1.7000000476837158
2023-02-14T02:23:55.000Z,1.600000023841858
2023-02-14T02:24:10.000Z,1.7000000476837158
2023-02-14T02:24:25.000Z,1.7000000476837158
2023-02-14T02:24:40.000Z,1.7000000476837158
2023-02-14T02:24:55.000Z,1.7000000476837158
2023-02-14T02:25:10.000Z,1.7000000476837158
2023-02-14T02:25:25.000Z,1.7000000476837158
2023-02-14T02:25:39.000Z,1.7000000476837158
2023-02-14T02:25:54.000Z,1.7000000476837158
2023-02-14T02:26:09.000Z,1.7000000476837158
2023-02-14T02:26:24.000Z,1.7000000476837158
2023-02-14T02:26:39.000Z,1.7000000476837158
2023-02-14T02:26:54.000Z,1.7000000476837158
2023-02-14T02:27:09.000Z,1.7000000476837158
2023-02-14T02:27:24.000Z,1.7999999523162842
2023-02-14T02:27:39.000Z,1.7000000476837158
2023-02-14T02:27:54.000Z,1.7000000476837158
2023-02-14T02:28:09.000Z,1.7000000476837158
2023-02-14T02:28:24.000Z,1.7000000476837158
2023-02-14T02:28:39.000Z,1.7000000476837158
2023-02-14T02:28:54.000Z,1.7000000476837158
2023-02-14T02:29:09.000Z,1.7000000476837158
2023-02-14T02:29:24.000Z,1.7000000476837158
2023-02-14T02:29:40.000Z,1.7000000476837158
2023-02-14T02:29:55.000Z,1.7000000476837158
2023-02-14T02:30:10.000Z,1.7000000476837158
2023-02-14T02:30:25.000Z,1.7000000476837158